Time;durP1;ratioP1;P1;durP2;ratioP2;P2;SDS_P1;SDS_P2;PMS_P1;PMS_P2;Temp;Humidity;BMP_temperature;BMP_pressure;BME280_temperature;BME280_humidity;BME280_pressure;Samples;Min_cycle;Max_cycle;Signal;HPM_P1;HPM_P2
2022/01/20 00:00:20;;;;;;;4.55;4.25;;;3.40;99.90;;;;;;5032193;28;20247;-81
2022/01/20 00:02:55;;;;;;;3.35;3.15;;;3.40;99.90;;;;;;5031996;28;20207;-80
2022/01/20 00:08:17;;;;;;;4.68;3.30;;;3.30;99.90;;;;;;5032184;28;20264;-83
2022/01/20 00:27:15;;;;;;;3.28;2.97;;;3.00;99.90;;;;;;5030172;28;20231;-81
2022/01/20 00:30:11;;;;;;;3.30;2.58;;;2.90;99.90;;;;;;5030338;28;20679;-83
2022/01/20 00:32:41;;;;;;;4.20;3.35;;;3.00;99.90;;;;;;5031364;28;20197;-82
2022/01/20 00:35:18;;;;;;;3.10;2.90;;;2.90;99.90;;;;;;5031655;28;20206;-80
2022/01/20 00:37:44;;;;;;;3.95;2.80;;;2.80;99.90;;;;;;5031293;28;20258;-81
2022/01/20 00:40:14;;;;;;;3.25;2.75;;;2.80;99.90;;;;;;5034635;28;20209;-81
2022/01/20 00:42:41;;;;;;;3.70;3.40;;;2.80;99.90;;;;;;5035288;28;20210;-82
2022/01/20 00:45:09;;;;;;;5.28;3.50;;;2.80;99.90;;;;;;5035846;28;20194;-81
2022/01/20 00:47:37;;;;;;;4.88;3.88;;;2.80;99.90;;;;;;5034865;28;20329;-83
2022/01/20 00:50:05;;;;;;;4.72;3.30;;;2.90;99.90;;;;;;5035360;28;20282;-82
2022/01/20 00:52:31;;;;;;;4.68;2.47;;;2.90;99.90;;;;;;5035259;28;20234;-81
2022/01/20 00:54:58;;;;;;;4.68;3.05;;;2.90;99.90;;;;;;5035581;28;20205;-82
2022/01/20 00:57:26;;;;;;;3.60;2.75;;;2.90;99.90;;;;;;5034689;28;20222;-83
2022/01/20 00:59:53;;;;;;;3.85;2.75;;;2.80;99.90;;;;;;5035754;28;20209;-81
2022/01/20 01:02:21;;;;;;;3.38;3.00;;;2.70;99.90;;;;;;5035927;28;20198;-82
2022/01/20 01:04:48;;;;;;;3.00;2.80;;;2.70;99.90;;;;;;5035909;28;20214;-81
2022/01/20 01:07:44;;;;;;;3.53;3.08;;;2.60;99.90;;;;;;5036154;28;20273;-80
2022/01/20 01:10:12;;;;;;;2.05;1.95;;;2.70;99.90;;;;;;5035696;28;20212;-80
2022/01/20 01:12:47;;;;;;;3.17;2.78;;;2.60;99.90;;;;;;5036244;28;20223;-81
2022/01/20 01:15:18;;;;;;;1.77;1.67;;;2.60;99.90;;;;;;5035785;28;20212;-81
2022/01/20 01:20:33;;;;;;;3.10;2.90;;;2.40;99.90;;;;;;5035326;28;20686;-82
2022/01/20 01:23:00;;;;;;;4.20;3.17;;;2.50;99.90;;;;;;5035084;28;20204;-81
2022/01/20 01:25:26;;;;;;;3.42;3.10;;;2.60;99.90;;;;;;5035515;28;20212;-81
2022/01/20 01:27:56;;;;;;;3.47;3.17;;;2.50;99.90;;;;;;5035234;28;20231;-82
2022/01/20 01:33:13;;;;;;;3.28;2.97;;;2.60;99.90;;;;;;5020161;28;20222;-81
2022/01/20 01:35:42;;;;;;;2.45;2.35;;;2.60;99.90;;;;;;5035454;28;20224;-81
2022/01/20 01:38:35;;;;;;;4.20;3.40;;;2.50;99.90;;;;;;5032624;28;20230;-81
2022/01/20 01:41:03;;;;;;;3.03;2.83;;;2.50;99.90;;;;;;5031299;28;20275;-82
2022/01/20 01:43:32;;;;;;;3.63;3.35;;;2.40;99.90;;;;;;5031059;28;20205;-82
2022/01/20 01:46:00;;;;;;;4.28;3.95;;;2.30;99.90;;;;;;5012109;28;20227;-81
2022/01/20 01:48:27;;;;;;;3.78;3.47;;;2.30;99.90;;;;;;5035647;23;20229;-81
2022/01/20 01:50:55;;;;;;;3.67;3.08;;;2.20;99.90;;;;;;5018180;28;20403;-81
2022/01/20 01:53:22;;;;;;;3.50;3.00;;;2.30;99.90;;;;;;5019205;28;20218;-81
2022/01/20 01:55:49;;;;;;;3.25;3.00;;;2.30;99.90;;;;;;5018757;28;20671;-81
2022/01/20 01:58:16;;;;;;;3.05;2.78;;;2.40;99.90;;;;;;5018575;28;20223;-81
2022/01/20 02:00:44;;;;;;;3.85;3.50;;;2.30;99.90;;;;;;5019463;28;20220;-81
2022/01/20 02:03:13;;;;;;;3.92;3.33;;;2.40;99.90;;;;;;5019202;28;20208;-81
2022/01/20 02:05:52;;;;;;;4.38;3.38;;;2.40;99.90;;;;;;5018787;28;20209;-81
2022/01/20 02:08:28;;;;;;;3.92;3.50;;;2.40;99.90;;;;;;5039260;28;20630;-81
2022/01/20 02:19:12;;;;;;;3.15;2.85;;;2.10;99.90;;;;;;5046437;28;20616;-81
2022/01/20 02:21:48;;;;;;;3.08;2.88;;;2.00;99.90;;;;;;5039392;28;20291;-81
2022/01/20 02:24:16;;;;;;;4.28;3.35;;;2.10;99.90;;;;;;5038904;28;20337;-81
2022/01/20 02:26:43;;;;;;;2.70;2.50;;;2.10;99.90;;;;;;5038182;28;20208;-81
2022/01/20 02:29:09;;;;;;;3.30;2.42;;;2.20;99.90;;;;;;5038412;28;20239;-81
2022/01/20 02:31:36;;;;;;;3.53;3.25;;;2.20;99.90;;;;;;5038026;28;20205;-81
2022/01/20 02:34:03;;;;;;;4.97;4.30;;;2.30;99.90;;;;;;5038321;28;20222;-81
2022/01/20 02:36:31;;;;;;;3.90;3.60;;;2.30;99.90;;;;;;5037810;28;20623;-81
2022/01/20 02:39:05;;;;;;;2.95;2.70;;;2.20;99.90;;;;;;5038532;28;20318;-81
2022/01/20 02:47:00;;;;;;;3.78;3.47;;;2.50;99.90;;;;;;5039080;28;20576;-81
2022/01/20 02:49:27;;;;;;;3.50;3.20;;;2.40;99.90;;;;;;5037818;28;20248;-81
2022/01/20 02:51:56;;;;;;;3.30;3.00;;;2.40;99.90;;;;;;5037320;28;20206;-82
2022/01/20 02:54:24;;;;;;;4.40;2.85;;;2.40;99.90;;;;;;5038061;28;20223;-81
2022/01/20 02:56:51;;;;;;;2.33;2.22;;;2.50;99.90;;;;;;5037923;28;20220;-82
2022/01/20 02:59:18;;;;;;;2.47;2.35;;;2.60;99.90;;;;;;5037852;28;20216;-81
2022/01/20 03:01:45;;;;;;;3.35;2.40;;;2.50;99.90;;;;;;5037214;28;20210;-81
2022/01/20 03:04:12;;;;;;;5.35;2.10;;;2.50;99.90;;;;;;5037089;28;20542;-81
2022/01/20 03:06:39;;;;;;;2.15;2.05;;;2.50;99.90;;;;;;5037867;28;20217;-81
2022/01/20 03:09:06;;;;;;;1.75;1.65;;;2.50;99.90;;;;;;5037297;28;20233;-81
2022/01/20 03:11:34;;;;;;;2.30;2.10;;;2.50;99.90;;;;;;5037733;28;20207;-81
2022/01/20 03:14:01;;;;;;;2.22;2.03;;;2.50;99.90;;;;;;5037765;28;20221;-82
2022/01/20 03:16:28;;;;;;;1.98;1.85;;;2.50;99.90;;;;;;5037289;28;20627;-81
2022/01/20 03:18:55;;;;;;;2.35;2.15;;;2.60;99.90;;;;;;5037322;28;20221;-81
2022/01/20 03:21:22;;;;;;;1.83;1.73;;;2.70;99.90;;;;;;5037099;28;20202;-81
2022/01/20 03:23:48;;;;;;;1.90;1.80;;;2.70;99.90;;;;;;5037214;28;20201;-82
2022/01/20 03:26:15;;;;;;;1.40;1.25;;;2.70;99.90;;;;;;5036964;28;20212;-81
2022/01/20 03:28:43;;;;;;;1.60;1.50;;;2.80;99.90;;;;;;5036812;28;20714;-81
2022/01/20 03:31:10;;;;;;;2.00;1.90;;;2.80;99.90;;;;;;5037065;28;20676;-81
2022/01/20 03:33:37;;;;;;;1.60;1.50;;;2.90;99.90;;;;;;5036562;28;20232;-81
2022/01/20 03:36:04;;;;;;;2.40;2.13;;;2.90;99.90;;;;;;5037553;28;20205;-81
2022/01/20 03:38:31;;;;;;;2.75;2.55;;;2.90;99.90;;;;;;5036821;28;20239;-81
2022/01/20 03:40:58;;;;;;;1.73;1.63;;;2.90;99.90;;;;;;5036857;28;20247;-81
2022/01/20 03:43:24;;;;;;;1.80;1.70;;;2.90;99.90;;;;;;5036978;28;20194;-82
2022/01/20 03:45:56;;;;;;;2.08;1.92;;;2.80;99.90;;;;;;5037123;28;20211;-82
2022/01/20 03:48:25;;;;;;;2.35;1.45;;;2.80;99.90;;;;;;5036782;28;20237;-81
2022/01/20 03:51:02;;;;;;;1.90;1.80;;;2.80;99.90;;;;;;5037095;28;20241;-82
2022/01/20 03:53:30;;;;;;;2.40;2.22;;;2.80;99.90;;;;;;5036669;28;20262;-82
2022/01/20 03:55:57;;;;;;;2.60;2.08;;;2.70;99.90;;;;;;5035852;28;20224;-82
2022/01/20 03:58:25;;;;;;;3.83;1.65;;;2.90;99.90;;;;;;5036743;28;20745;-82
2022/01/20 04:00:53;;;;;;;2.35;2.15;;;2.90;99.90;;;;;;5044209;28;20212;-80
2022/01/20 04:03:20;;;;;;;1.70;1.60;;;3.00;99.90;;;;;;5051721;28;20209;-80
2022/01/20 04:05:56;;;;;;;1.50;1.40;;;2.90;99.90;;;;;;5048070;28;20209;-81
2022/01/20 04:08:25;;;;;;;2.50;2.30;;;2.90;99.90;;;;;;5036818;28;20238;-82
2022/01/20 04:10:52;;;;;;;1.83;1.73;;;3.00;99.90;;;;;;5036959;28;20217;-81
2022/01/20 04:13:19;;;;;;;1.70;1.60;;;3.00;99.90;;;;;;5047312;28;20224;-81
2022/01/20 04:15:48;;;;;;;2.13;2.03;;;2.90;99.90;;;;;;5055742;28;20206;-81
2022/01/20 04:18:21;;;;;;;2.22;2.08;;;2.90;99.90;;;;;;5048972;28;20220;-82
2022/01/20 04:20:48;;;;;;;2.20;2.00;;;3.00;99.90;;;;;;5041220;28;20229;-81
2022/01/20 04:23:15;;;;;;;2.50;2.30;;;3.10;99.90;;;;;;5041073;28;20206;-82
2022/01/20 04:25:41;;;;;;;2.75;2.55;;;3.10;99.90;;;;;;5053073;28;20209;-81
2022/01/20 04:28:08;;;;;;;2.40;2.22;;;3.10;99.90;;;;;;5053622;28;20235;-80
2022/01/20 04:30:35;;;;;;;2.55;2.35;;;3.00;99.90;;;;;;5046748;28;20706;-82
2022/01/20 04:33:02;;;;;;;2.90;2.47;;;3.10;99.90;;;;;;5041167;28;20219;-82
2022/01/20 04:35:30;;;;;;;2.65;2.45;;;3.20;99.90;;;;;;5040701;28;20209;-82
2022/01/20 04:37:58;;;;;;;2.40;2.20;;;3.20;99.90;;;;;;5040857;28;20225;-82
2022/01/20 04:40:25;;;;;;;2.58;2.40;;;3.10;99.90;;;;;;5040598;28;20213;-82
2022/01/20 04:42:52;;;;;;;3.20;2.67;;;3.20;99.90;;;;;;5040557;28;20212;-82
2022/01/20 04:45:24;;;;;;;3.30;3.05;;;3.30;99.90;;;;;;5041852;28;20213;-82
2022/01/20 04:47:59;;;;;;;3.28;2.97;;;3.30;99.90;;;;;;5040263;28;20240;-82
2022/01/20 04:58:40;;;;;;;2.75;2.50;;;3.00;99.90;;;;;;5040208;28;20225;-81
2022/01/20 05:01:07;;;;;;;4.03;3.45;;;2.90;99.90;;;;;;5040504;28;20587;-82
2022/01/20 05:03:34;;;;;;;4.90;3.55;;;2.90;99.90;;;;;;5040161;28;20202;-82
2022/01/20 05:06:01;;;;;;;4.93;3.13;;;2.90;99.90;;;;;;5040316;28;20253;-82
2022/01/20 05:08:30;;;;;;;2.75;2.55;;;2.90;99.90;;;;;;5040102;28;20219;-82
2022/01/20 05:11:00;;;;;;;3.95;2.80;;;2.90;99.90;;;;;;5039572;28;20208;-82
2022/01/20 05:13:33;;;;;;;3.42;3.00;;;2.80;99.90;;;;;;5039862;28;20202;-82
2022/01/20 05:16:00;;;;;;;3.17;2.40;;;2.90;99.90;;;;;;5039541;28;20205;-81
2022/01/20 05:18:27;;;;;;;3.30;3.10;;;2.80;99.90;;;;;;5039344;28;20225;-81
2022/01/20 05:20:53;;;;;;;3.88;3.58;;;2.80;99.90;;;;;;5039386;28;20701;-82
2022/01/20 05:23:20;;;;;;;4.68;3.75;;;2.70;99.90;;;;;;5039716;28;20703;-81
2022/01/20 05:25:50;;;;;;;3.50;3.00;;;2.80;99.90;;;;;;5039662;28;20701;-81
2022/01/20 05:28:17;;;;;;;3.00;2.70;;;2.80;99.90;;;;;;5039203;28;20218;-82
2022/01/20 05:30:43;;;;;;;4.65;3.63;;;2.90;99.90;;;;;;5039342;28;20210;-81
2022/01/20 05:33:11;;;;;;;3.10;2.90;;;2.90;99.90;;;;;;5039759;28;20208;-82
2022/01/20 05:35:37;;;;;;;3.03;2.83;;;2.80;99.90;;;;;;5039711;28;20240;-82
2022/01/20 05:38:05;;;;;;;3.28;2.97;;;2.70;99.90;;;;;;5038739;28;20236;-81
2022/01/20 05:40:34;;;;;;;4.70;3.60;;;2.60;99.90;;;;;;5039748;28;20211;-82
2022/01/20 05:43:03;;;;;;;3.28;2.97;;;2.60;99.90;;;;;;5038349;28;20202;-81
2022/01/20 05:45:30;;;;;;;3.10;2.88;;;2.60;99.90;;;;;;5039783;28;20216;-81
2022/01/20 05:48:08;;;;;;;3.17;2.88;;;2.50;99.90;;;;;;5039365;28;20234;-81
2022/01/20 05:50:35;;;;;;;4.13;3.55;;;2.60;99.90;;;;;;5039407;28;20215;-82
2022/01/20 05:53:02;;;;;;;4.55;3.72;;;2.50;99.90;;;;;;5039450;28;20561;-81
2022/01/20 05:55:30;;;;;;;8.43;3.65;;;2.60;99.90;;;;;;5039071;28;20299;-81
2022/01/20 05:57:57;;;;;;;3.70;3.03;;;2.60;99.90;;;;;;5039075;28;20228;-82
2022/01/20 06:00:25;;;;;;;5.03;3.55;;;2.60;99.90;;;;;;5038634;28;20215;-82
2022/01/20 06:05:38;;;;;;;3.92;2.90;;;2.60;99.90;;;;;;5039874;28;20215;-82
2022/01/20 06:08:05;;;;;;;3.20;2.78;;;2.70;99.90;;;;;;5047074;28;20232;-79
2022/01/20 06:10:32;;;;;;;4.47;3.05;;;2.70;99.90;;;;;;5038338;28;20690;-79
2022/01/20 06:12:59;;;;;;;2.58;2.38;;;2.80;99.90;;;;;;5036136;28;20214;-79
2022/01/20 06:15:29;;;;;;;3.47;2.72;;;2.70;99.90;;;;;;5036714;28;20591;-80
2022/01/20 06:17:59;;;;;;;5.18;3.00;;;2.70;99.90;;;;;;5039074;28;20604;-80
2022/01/20 06:20:26;;;;;;;4.15;2.72;;;2.80;99.90;;;;;;5037786;28;20224;-80
2022/01/20 06:22:53;;;;;;;4.15;3.55;;;2.80;99.90;;;;;;5035306;28;20210;-80
2022/01/20 06:25:21;;;;;;;3.15;2.60;;;2.70;99.90;;;;;;5035135;28;20213;-80
2022/01/20 06:27:49;;;;;;;5.35;3.53;;;2.80;99.90;;;;;;5034965;28;20229;-80
2022/01/20 06:30:16;;;;;;;3.17;2.35;;;2.90;99.90;;;;;;5034709;28;20210;-80
2022/01/20 06:32:44;;;;;;;2.47;2.25;;;2.90;99.90;;;;;;5034936;28;20210;-80
2022/01/20 06:35:12;;;;;;;4.05;2.92;;;2.90;99.90;;;;;;5034561;28;20235;-80
2022/01/20 06:37:38;;;;;;;3.03;2.50;;;2.80;99.90;;;;;;5036649;28;20233;-81
2022/01/20 06:40:07;;;;;;;1.95;1.85;;;2.70;99.90;;;;;;5038921;28;20212;-81
2022/01/20 06:42:35;;;;;;;2.70;2.00;;;2.60;99.90;;;;;;5038603;28;20211;-81
2022/01/20 06:45:02;;;;;;;1.33;1.20;;;2.50;99.90;;;;;;5038110;28;20249;-82
2022/01/20 06:47:29;;;;;;;2.20;2.00;;;2.50;99.90;;;;;;5038059;28;20588;-81
2022/01/20 06:49:57;;;;;;;2.15;2.00;;;2.50;99.90;;;;;;5038509;28;20203;-81
2022/01/20 06:52:24;;;;;;;1.60;1.50;;;2.50;99.90;;;;;;5038080;28;20214;-81
2022/01/20 06:54:50;;;;;;;2.25;1.98;;;2.50;99.90;;;;;;5037319;28;20229;-81
2022/01/20 06:57:17;;;;;;;2.05;1.92;;;2.40;99.90;;;;;;5037748;28;20673;-81
2022/01/20 06:59:44;;;;;;;2.55;2.45;;;2.30;99.90;;;;;;5036952;28;20203;-81
2022/01/20 07:02:11;;;;;;;1.85;1.75;;;2.30;99.90;;;;;;5037636;28;20213;-81
2022/01/20 07:04:38;;;;;;;5.43;2.92;;;2.30;99.90;;;;;;5037264;28;20684;-81
2022/01/20 07:07:07;;;;;;;2.53;1.90;;;2.40;99.90;;;;;;5037475;28;20212;-82
2022/01/20 07:09:36;;;;;;;2.83;2.22;;;2.50;99.90;;;;;;5039119;28;20246;-81
2022/01/20 07:12:04;;;;;;;2.40;2.15;;;2.50;99.90;;;;;;5037600;28;20672;-81
2022/01/20 07:14:31;;;;;;;1.95;1.85;;;2.50;99.90;;;;;;5037307;28;20228;-81
2022/01/20 07:16:58;;;;;;;2.75;2.53;;;2.50;99.90;;;;;;5037162;28;20220;-81
2022/01/20 07:19:25;;;;;;;2.90;2.63;;;2.50;99.90;;;;;;5037422;28;20229;-81
2022/01/20 07:21:52;;;;;;;2.30;2.08;;;2.40;99.90;;;;;;5036610;28;20264;-81
2022/01/20 07:24:20;;;;;;;2.75;2.55;;;2.30;99.90;;;;;;5017872;28;20204;-81
2022/01/20 07:26:47;;;;;;;3.10;2.90;;;2.20;99.90;;;;;;5031988;28;20624;-80
2022/01/20 07:29:14;;;;;;;4.63;2.85;;;2.30;99.90;;;;;;5037617;28;20606;-81
2022/01/20 07:31:41;;;;;;;5.85;2.83;;;2.30;99.90;;;;;;5037390;28;20213;-81
2022/01/20 07:34:08;;;;;;;3.17;2.70;;;2.20;99.90;;;;;;5037633;28;20215;-80
2022/01/20 07:36:35;;;;;;;3.58;3.15;;;2.30;99.90;;;;;;5037195;28;20200;-81
2022/01/20 07:39:02;;;;;;;3.42;2.60;;;2.20;99.90;;;;;;5037730;28;20597;-80
2022/01/20 07:41:30;;;;;;;4.30;3.55;;;2.20;99.90;;;;;;5035678;28;20315;-81
2022/01/20 07:43:56;;;;;;;3.97;2.70;;;2.10;99.90;;;;;;5026788;28;20196;-81
2022/01/20 07:46:23;;;;;;;7.82;3.50;;;2.10;99.90;;;;;;5024835;28;20856;-81
2022/01/20 07:48:50;;;;;;;4.53;3.95;;;2.10;99.90;;;;;;5050317;23;20237;-84
2022/01/20 07:51:18;;;;;;;4.40;3.47;;;2.10;99.90;;;;;;5046496;28;20215;-81
2022/01/20 07:53:46;;;;;;;6.35;3.45;;;2.00;99.90;;;;;;5051451;28;20232;-81
2022/01/20 07:56:13;;;;;;;9.95;3.90;;;2.00;99.90;;;;;;5041630;28;20220;-84
2022/01/20 07:58:41;;;;;;;5.57;3.67;;;2.00;99.90;;;;;;5039732;28;20222;-84
2022/01/20 08:01:08;;;;;;;8.68;4.75;;;2.00;99.90;;;;;;5040348;28;20602;-83
2022/01/20 08:03:35;;;;;;;14.02;4.43;;;2.00;99.90;;;;;;5047935;28;20204;-84
2022/01/20 08:06:01;;;;;;;4.25;3.08;;;2.10;99.90;;;;;;5053981;28;20210;-80
2022/01/20 08:08:28;;;;;;;3.90;3.10;;;2.20;99.90;;;;;;5044626;28;20216;-81
2022/01/20 08:10:55;;;;;;;8.55;3.67;;;2.20;99.90;;;;;;5041151;28;20211;-81
2022/01/20 08:13:22;;;;;;;3.95;3.55;;;2.30;99.90;;;;;;5033465;28;20763;-81
2022/01/20 08:15:50;;;;;;;4.93;4.30;;;2.40;99.90;;;;;;5039156;28;20232;-81
2022/01/20 08:18:17;;;;;;;4.80;4.22;;;2.50;99.90;;;;;;5038530;28;20203;-80
2022/01/20 08:20:43;;;;;;;5.10;4.10;;;2.50;99.90;;;;;;5038478;28;20211;-81
2022/01/20 08:23:10;;;;;;;4.45;4.05;;;2.50;99.90;;;;;;5037884;28;20208;-80
2022/01/20 08:25:37;;;;;;;6.80;3.58;;;2.60;99.90;;;;;;5038048;28;20206;-80
2022/01/20 08:28:04;;;;;;;4.10;3.45;;;2.70;99.90;;;;;;5038515;28;20559;-83
2022/01/20 08:30:31;;;;;;;5.47;3.70;;;2.70;99.90;;;;;;5031201;28;20092;-83
2022/01/20 08:33:00;;;;;;;4.43;2.97;;;2.80;99.90;;;;;;5023677;28;20201;-85
2022/01/20 08:35:31;;;;;;;15.13;4.35;;;2.90;99.90;;;;;;5034369;28;20224;-83
2022/01/20 08:37:59;;;;;;;6.15;3.00;;;2.90;99.90;;;;;;5028030;28;20197;-84
2022/01/20 08:40:27;;;;;;;6.38;3.78;;;2.90;99.90;;;;;;5034130;28;20237;-85
2022/01/20 08:42:55;;;;;;;10.98;3.17;;;2.90;99.90;;;;;;5035104;28;20208;-83
2022/01/20 08:45:25;;;;;;;5.57;4.32;;;2.80;99.90;;;;;;5033567;28;20237;-84
2022/01/20 08:47:55;;;;;;;5.78;3.85;;;2.80;99.90;;;;;;5035218;28;20209;-84
2022/01/20 08:50:24;;;;;;;7.68;3.53;;;2.80;99.90;;;;;;5034890;28;20240;-84
2022/01/20 08:52:52;;;;;;;4.30;3.72;;;2.90;99.90;;;;;;5034796;28;20209;-84
2022/01/20 08:55:19;;;;;;;3.78;3.42;;;2.90;99.90;;;;;;5035949;28;20229;-85
2022/01/20 08:57:46;;;;;;;2.97;1.75;;;2.80;99.90;;;;;;5038273;28;20674;-85
2022/01/20 09:00:15;;;;;;;5.05;2.88;;;2.80;99.90;;;;;;5049377;28;20230;-85
2022/01/20 09:02:42;;;;;;;6.60;4.97;;;2.80;99.90;;;;;;5040763;28;20204;-85
2022/01/20 09:05:09;;;;;;;5.05;3.72;;;2.90;99.90;;;;;;5039048;28;20572;-84
2022/01/20 09:07:38;;;;;;;5.65;3.38;;;3.00;99.90;;;;;;5038836;28;20363;-86
2022/01/20 09:10:07;;;;;;;3.42;3.13;;;3.00;99.90;;;;;;5039471;28;20231;-85
2022/01/20 09:15:28;;;;;;;7.10;3.50;;;2.90;99.90;;;;;;5021367;28;20230;-84
2022/01/20 09:17:55;;;;;;;1.92;1.63;;;3.00;99.90;;;;;;5024407;28;20249;-85
2022/01/20 09:20:29;;;;;;;2.95;2.75;;;3.00;99.90;;;;;;5047515;28;20229;-84
2022/01/20 09:22:58;;;;;;;3.17;2.80;;;3.00;99.90;;;;;;5042946;28;20214;-83
2022/01/20 09:25:25;;;;;;;9.05;3.60;;;3.00;99.90;;;;;;5041057;28;20227;-84
2022/01/20 09:27:55;;;;;;;5.13;3.95;;;3.10;99.90;;;;;;5039489;28;20213;-85
2022/01/20 09:30:23;;;;;;;3.42;3.13;;;3.10;99.90;;;;;;5038149;28;20238;-84
2022/01/20 09:33:11;;;;;;;4.88;3.20;;;3.20;99.90;;;;;;5038158;28;20671;-84
2022/01/20 09:35:40;;;;;;;5.00;3.83;;;3.30;99.90;;;;;;5039804;28;20238;-84
2022/01/20 09:38:08;;;;;;;5.20;2.40;;;3.50;99.90;;;;;;5053844;28;20216;-84
2022/01/20 09:40:37;;;;;;;3.05;2.03;;;3.50;99.90;;;;;;5053035;28;20208;-85
2022/01/20 09:43:05;;;;;;;5.03;3.13;;;3.50;99.90;;;;;;5039501;28;20201;-85
2022/01/20 09:45:32;;;;;;;2.83;2.60;;;3.40;99.90;;;;;;5037860;28;20599;-84
2022/01/20 09:48:00;;;;;;;2.55;2.25;;;3.40;99.90;;;;;;5058227;28;20210;-85
2022/01/20 09:50:32;;;;;;;6.93;1.83;;;3.40;99.90;;;;;;5059149;28;20348;-84
2022/01/20 09:53:01;;;;;;;4.85;3.58;;;3.50;99.90;;;;;;5064759;28;20247;-83
2022/01/20 09:55:32;;;;;;;5.05;2.00;;;3.60;99.90;;;;;;5064823;28;20222;-83
2022/01/20 09:57:59;;;;;;;4.65;2.72;;;3.50;99.90;;;;;;5062805;28;20221;-84
2022/01/20 10:00:26;;;;;;;3.22;2.83;;;3.60;99.90;;;;;;5048577;28;20230;-83
2022/01/20 10:02:56;;;;;;;3.33;2.90;;;3.70;99.90;;;;;;5040148;28;20292;-84
2022/01/20 10:05:28;;;;;;;5.28;2.95;;;3.70;99.90;;;;;;5040260;28;20206;-83
2022/01/20 10:08:09;;;;;;;10.07;3.53;;;3.80;99.90;;;;;;5038261;28;20199;-85
2022/01/20 10:10:44;;;;;;;4.22;2.65;;;3.90;99.90;;;;;;5019884;28;20194;-83
2022/01/20 10:13:12;;;;;;;4.78;3.33;;;3.90;99.90;;;;;;5019445;28;20249;-83
2022/01/20 10:15:39;;;;;;;5.85;2.40;;;4.00;99.90;;;;;;5017731;28;20227;-83
2022/01/20 10:18:08;;;;;;;3.88;2.42;;;3.90;99.90;;;;;;5017368;28;20210;-85
2022/01/20 10:20:36;;;;;;;4.05;2.55;;;3.80;99.90;;;;;;5040656;28;20198;-84
2022/01/20 10:23:03;;;;;;;2.35;1.80;;;3.80;99.90;;;;;;5044480;28;20570;-84
2022/01/20 10:25:35;;;;;;;4.05;3.40;;;3.70;99.90;;;;;;5042299;28;20231;-83
2022/01/20 10:28:04;;;;;;;4.72;3.72;;;3.70;99.90;;;;;;5041980;28;20205;-82
2022/01/20 10:30:33;;;;;;;2.97;2.63;;;3.70;99.90;;;;;;5041516;28;20315;-84
2022/01/20 10:33:02;;;;;;;3.00;2.38;;;3.70;99.90;;;;;;5042666;28;20275;-85
2022/01/20 10:35:34;;;;;;;4.38;3.20;;;3.70;99.90;;;;;;5041903;28;20219;-84
2022/01/20 10:38:11;;;;;;;2.55;1.70;;;3.70;99.90;;;;;;5038010;28;20242;-84
2022/01/20 10:40:47;;;;;;;5.97;4.28;;;3.90;99.90;;;;;;5037226;28;20217;-83
2022/01/20 10:43:22;;;;;;;5.40;4.22;;;3.90;99.90;;;;;;5038294;28;20208;-84
2022/01/20 10:45:49;;;;;;;6.05;5.65;;;4.10;99.90;;;;;;5037142;28;20198;-83
2022/01/20 10:48:19;;;;;;;4.95;2.88;;;4.10;99.90;;;;;;5041258;28;20208;-85
2022/01/20 10:50:46;;;;;;;5.22;3.95;;;4.00;99.90;;;;;;5040336;28;20222;-86
2022/01/20 10:53:18;;;;;;;3.20;2.90;;;4.10;99.90;;;;;;5038440;28;20286;-84
2022/01/20 10:55:45;;;;;;;5.28;3.83;;;4.00;99.90;;;;;;5039418;28;20218;-84
2022/01/20 10:58:16;;;;;;;6.85;3.50;;;4.10;99.90;;;;;;5036653;28;20683;-84
2022/01/20 11:00:48;;;;;;;5.72;2.70;;;4.00;99.90;;;;;;5039511;28;20216;-85
2022/01/20 11:03:15;;;;;;;2.50;2.40;;;3.80;99.90;;;;;;5038455;28;20197;-85
2022/01/20 11:05:49;;;;;;;6.38;2.65;;;3.80;99.90;;;;;;5039415;28;20213;-84
2022/01/20 11:08:16;;;;;;;2.25;2.15;;;3.70;99.90;;;;;;5039114;28;20697;-84
2022/01/20 11:10:43;;;;;;;3.85;3.20;;;3.70;99.90;;;;;;5038448;28;20213;-84
2022/01/20 11:13:11;;;;;;;4.70;3.75;;;3.70;99.90;;;;;;5038028;28;20229;-86
2022/01/20 11:15:40;;;;;;;5.03;3.72;;;3.70;99.90;;;;;;5041408;28;20225;-85
2022/01/20 11:18:09;;;;;;;9.95;4.35;;;3.60;99.90;;;;;;5037497;28;20636;-84
2022/01/20 11:20:41;;;;;;;2.85;2.63;;;3.60;99.90;;;;;;5037307;28;20233;-85
2022/01/20 11:23:08;;;;;;;2.78;2.58;;;3.50;99.90;;;;;;5026364;28;20196;-84
2022/01/20 11:25:37;;;;;;;3.00;2.70;;;3.50;99.90;;;;;;5016551;28;20217;-84
2022/01/20 11:28:08;;;;;;;5.30;4.80;;;3.50;99.90;;;;;;5025376;28;20614;-84
2022/01/20 11:30:35;;;;;;;3.75;2.60;;;3.60;99.90;;;;;;5035569;28;20660;-85
2022/01/20 11:33:04;;;;;;;4.90;3.17;;;3.60;99.90;;;;;;5036317;28;20553;-86
2022/01/20 11:35:46;;;;;;;4.13;2.35;;;3.60;99.90;;;;;;5037087;28;20218;-87
2022/01/20 11:38:15;;;;;;;3.50;2.70;;;3.50;99.90;;;;;;5045562;28;20718;-86
2022/01/20 11:40:51;;;;;;;3.78;3.28;;;3.50;99.90;;;;;;5043837;28;20243;-85
2022/01/20 11:43:38;;;;;;;2.97;2.08;;;3.60;99.90;;;;;;5044236;28;20229;-84
2022/01/20 11:46:14;;;;;;;2.00;1.90;;;3.60;99.90;;;;;;5039576;28;20212;-85
2022/01/20 11:48:55;;;;;;;6.47;3.22;;;3.60;99.90;;;;;;5037087;28;20243;-85
2022/01/20 11:51:25;;;;;;;2.75;2.33;;;3.70;99.90;;;;;;5039852;28;20226;-86
2022/01/20 11:53:57;;;;;;;6.13;2.40;;;3.90;99.90;;;;;;5039817;28;20219;-84
2022/01/20 11:56:33;;;;;;;2.35;2.10;;;4.60;99.90;;;;;;5036442;28;20268;-84
2022/01/20 11:58:59;;;;;;;2.70;2.50;;;5.10;99.90;;;;;;5038507;28;20232;-85
2022/01/20 12:01:28;;;;;;;6.10;2.38;;;5.00;99.90;;;;;;5036530;28;20204;-87
2022/01/20 12:03:56;;;;;;;3.83;3.03;;;5.00;99.90;;;;;;5035491;28;20206;-84
2022/01/20 12:06:25;;;;;;;4.03;2.45;;;5.00;99.90;;;;;;5035942;28;20251;-86
2022/01/20 12:08:54;;;;;;;7.07;2.33;;;4.90;99.90;;;;;;5037330;28;20264;-84
2022/01/20 12:11:22;;;;;;;9.75;2.35;;;4.80;99.90;;;;;;5039766;28;20210;-87
2022/01/20 12:13:50;;;;;;;3.72;2.65;;;4.80;99.90;;;;;;5041361;28;20198;-86
2022/01/20 12:16:19;;;;;;;2.30;2.05;;;4.70;99.90;;;;;;5042098;28;20222;-87
2022/01/20 12:18:51;;;;;;;3.15;2.20;;;4.60;99.90;;;;;;5041398;28;20726;-86
2022/01/20 12:21:18;;;;;;;5.80;2.78;;;4.50;99.90;;;;;;5044014;28;20190;-87
2022/01/20 12:23:48;;;;;;;2.53;1.55;;;4.50;99.90;;;;;;5043083;28;20206;-86
2022/01/20 12:26:15;;;;;;;4.63;2.53;;;4.40;99.90;;;;;;5042046;28;20205;-85
2022/01/20 12:28:42;;;;;;;3.70;2.42;;;4.30;99.90;;;;;;5040596;28;20296;-87
2022/01/20 12:31:12;;;;;;;4.22;2.80;;;4.20;99.90;;;;;;5040959;28;20210;-88
2022/01/20 12:33:41;;;;;;;3.17;2.17;;;4.10;99.90;;;;;;5042478;28;20261;-88
2022/01/20 12:36:13;;;;;;;3.13;2.55;;;3.90;99.90;;;;;;5045288;28;20229;-86
2022/01/20 12:38:40;;;;;;;3.80;2.25;;;3.80;99.90;;;;;;5045429;28;20256;-86
2022/01/20 12:41:10;;;;;;;2.25;2.15;;;3.80;99.90;;;;;;5045823;28;20294;-86
2022/01/20 12:43:41;;;;;;;0.93;0.93;;;3.70;99.90;;;;;;5046475;28;20222;-85
2022/01/20 12:46:09;;;;;;;1.55;1.45;;;3.70;99.90;;;;;;5045306;28;20202;-86
2022/01/20 12:48:37;;;;;;;0.98;0.88;;;3.50;99.90;;;;;;5046128;28;20229;-85
2022/01/20 12:51:06;;;;;;;3.95;2.20;;;2.70;99.90;;;;;;5043169;28;20472;-84
2022/01/20 12:53:38;;;;;;;3.65;1.38;;;2.60;99.90;;;;;;5043334;28;20205;-84
2022/01/20 12:56:08;;;;;;;0.90;0.90;;;2.10;99.90;;;;;;5042000;28;20251;-84
2022/01/20 12:58:52;;;;;;;1.63;1.20;;;1.60;99.90;;;;;;5046645;28;20236;-86
2022/01/20 13:01:20;;;;;;;2.95;1.65;;;1.50;99.90;;;;;;5047421;28;20678;-85
2022/01/20 13:03:47;;;;;;;1.63;1.25;;;1.30;99.90;;;;;;5046813;28;20211;-85
2022/01/20 13:06:23;;;;;;;2.05;1.95;;;1.10;99.90;;;;;;5043728;28;20199;-81
2022/01/20 13:09:05;;;;;;;1.52;1.42;;;1.00;99.90;;;;;;5044135;28;20287;-82
2022/01/20 13:11:38;;;;;;;2.90;0.98;;;0.90;99.90;;;;;;5043797;28;20212;-83
2022/01/20 13:14:06;;;;;;;7.60;2.97;;;0.90;99.90;;;;;;5044839;28;20196;-84
2022/01/20 13:16:33;;;;;;;3.60;1.75;;;0.80;99.90;;;;;;5043077;28;20230;-83
2022/01/20 13:19:01;;;;;;;6.85;3.08;;;0.80;99.90;;;;;;5045715;28;20234;-85
2022/01/20 13:21:37;;;;;;;2.47;1.30;;;0.70;99.90;;;;;;5046079;28;20202;-84
2022/01/20 13:24:06;;;;;;;2.97;2.47;;;0.70;99.90;;;;;;5043340;28;20270;-84
2022/01/20 13:26:49;;;;;;;1.40;1.30;;;0.60;99.90;;;;;;5044514;28;20198;-83
2022/01/20 13:29:17;;;;;;;2.55;1.70;;;0.70;99.90;;;;;;5045397;28;20286;-84
2022/01/20 13:31:43;;;;;;;2.83;2.65;;;0.60;99.90;;;;;;5042322;28;20212;-83
2022/01/20 13:34:12;;;;;;;4.50;1.88;;;0.70;99.90;;;;;;5043214;28;20223;-83
2022/01/20 13:36:42;;;;;;;2.28;2.17;;;0.80;99.90;;;;;;5042461;28;20247;-84
2022/01/20 13:39:09;;;;;;;3.28;2.42;;;0.80;99.90;;;;;;5044782;28;20733;-84
2022/01/20 13:41:38;;;;;;;2.78;2.58;;;0.80;99.90;;;;;;5042053;28;20203;-83
2022/01/20 13:47:05;;;;;;;5.68;3.42;;;1.00;99.90;;;;;;5042994;28;20202;-83
2022/01/20 13:49:32;;;;;;;8.15;2.35;;;1.10;99.90;;;;;;5043523;28;20238;-83
2022/01/20 13:52:00;;;;;;;2.45;2.15;;;1.10;99.90;;;;;;5042222;28;20664;-83
2022/01/20 13:54:40;;;;;;;2.05;1.85;;;1.10;99.90;;;;;;5043800;28;20212;-82
2022/01/20 13:57:08;;;;;;;5.07;2.63;;;1.20;99.90;;;;;;5050003;28;20226;-84
2022/01/20 13:59:36;;;;;;;4.35;2.40;;;1.20;99.90;;;;;;5054600;28;20254;-82
2022/01/20 14:02:03;;;;;;;7.82;3.97;;;1.10;99.90;;;;;;5038925;28;20926;-81